Aérodrome :
LOGIN :

S'inscrire | Disclaimer

   EN    FR    IT 

 










Légende :    VFR   VFR Marginal   IFR   IFR Intensif   IFR Très Intensif
Visi : 
Plafond : 
>= 8 km
>= 3000ft
5 à 8 km
1000 à 3000 ft
1500m à 5 km
500 à 1000 ft
800 à 1500m
200 à 500 ft
< 800m
< 200 ft
Symboles :   Orages  Brouillard  Fortes neiges  Fortes précipitations  Vent > 20 kt
SIGMETs :   Divers  Orages  Givrage  Turbulence  Onde Orograph.  Cendres Volcan.







- Altitude de l'aérodrome : 122 ft
- Code IATA : TXL


EDDT - Berlin Tegel Int.

DERNIER METAR :
  • 230520Z 10010KT 070V130 6000 BKN007 M06/M08 Q1005 TEMPO 3500 BR

METARs EXPIRÉS :
  • 230450Z 12009KT 070V140 6000 BKN007 M06/M08 Q1005 TEMPO 3500 BR
  • 230420Z 10010KT 7000 BKN007 M06/M08 Q1005 NOSIG
  • 230350Z 10010KT 070V130 7000 BKN007 M06/M08 Q1005 NOSIG
  • 230320Z 11009KT 060V130 7000 BKN007 M06/M08 Q1005
  • 230250Z 11011KT 7000 BKN007 M06/M08 Q1005

TAF TAF EDDT
Valide du 23 à 06h jusqu'au 24 à 06h UTC


230500Z 2306/2406 12010KT 4000 BR BKN007
TEMPO 2306/2311 6000 SCT010
Pas de NOTAMs connus pour ce terrain.



MET'MAP, la Météo Aéronautique d'un coup d'oeil ! - Copyright ORBIFLY Décembre 2007 - Disclaimer

ORBIFLY MET'MAP TEAM :

Programmation & Développement : Alexandra Zaïnal
Conception & Développement : Baudouin d'Aumeries
Co-Programmation & Développement : Marc-Olivier Méhu
Soutien technique & logistique : Manuel Goepfert

Contact : metmap@orbifly.com




SOURCES & CREDITS :

   NOAA